Tiempo atmosférico en la estación meteorológica de Valencia De Don Juan, León (788 m.)



Fecha
DESCASC
Temp. máxima en grados centígrados (hora)
DESCASC
Temp. mínima en grados centígrados (hora)
DESCASC
Temp. media en grados centígrados
DESCASC
Racha de viento máxima en m/sg (hora)
DESCASC
Velocidad máxima media en intervalos de 10 minutos(hora)
DESCASC
Precipitaciones diarias en mm
DESCASC
Precipitaciones de 00:00 a 06:00 en mm
DESCASC
Precipitaciones de 06:00 a 12:00 en mm
DESCASC
Precipitaciones de 12:00 a 18:00 en mm
DESCASC
Precipitaciones de 18:00 a 24:00 en mm
DESCASC
20-09-2018 29.3 (16:50) 9.7 (08:20) 19.5 11.39 (17:10) 7.78 (17:10) 0 0 0 0 0
19-09-2018 28.4 (17:40) 10.2 (08:20) 19.3 6.11 (17:40) 3.61 (14:40) 0 0 0 0 0
18-09-2018 28.6 (18:10) 13.2 (07:20) 20.9 9.72 (16:00) 5.83 (14:50) 0 0 0 0 0
17-09-2018 29.4 (17:40) 10.4 (07:00) 19.9 13.61 (20:20) 8.89 (20:50) 0.4 0 0 0 0.4
16-09-2018 28.6 (17:00) 12.5 (00:00) 20.6 6.67 (00:40) 5 (00:40) 0 0 0 0 0
15-09-2018 29.1 (17:40) 12 (00:00) 20.6 12.5 (00:10) 8.33 (00:10) 0 0 0 0 0
14-09-2018 28.2 (17:00) 10.7 (00:00) 19.5 12.78 (23:20) 8.89 (23:30) 0 0 0 0 0
13-09-2018 28.1 (17:30) 12 (00:00) 20.1 8.06 (23:00) 4.72 (23:00) 0 0 0 0 0
12-09-2018 28.7 (17:50) 11.2 (00:00) 20 7.78 (00:10) 4.44 (00:10) 0 0 0 0 0
11-09-2018 27.6 (17:20) 11.3 (00:00) 19.5 10 (21:20) 6.67 (23:10) 0 0 0 0 0
10-09-2018 25.8 (17:30) 10.1 (00:00) 17.9 6.94 (14:40) 4.17 (01:50) 0 0 0 0 0
09-09-2018 23.7 (15:10) 13.8 (00:00) 18.8 11.11 (03:00) 7.22 (03:00) 0 0 0 0 0
08-09-2018 26.7 (17:30) 11 (00:00) 18.9 10.83 (01:30) 7.78 (01:30) 0 0 0 0 0
07-09-2018 24.2 (18:20) 9.9 (00:00) 17.1 12.5 (14:40) 6.67 (23:10) 0 0 0 0 0
06-09-2018 22 (14:40) 10.3 (00:00) 16.2 9.72 (17:10) 7.22 (17:10) 0 0 0 0 0
05-09-2018 21.7 (16:00) 12.2 (00:00) 17 14.72 (10:40) 10.56 (10:40) 15.8 0 15.8 0 0
04-09-2018 -- (--) -- (--) -- -- (--) -- (--) -- -- -- 0 0
03-09-2018 -- (--) -- (--) -- -- (--) -- (--) -- -- -- -- --
02-09-2018 31.6 (19:20) 12.8 (00:00) 22.2 10.28 (03:40) 5.28 (03:40) 0 0 0 0 0
01-09-2018 30.1 (17:30) 12.1 (00:00) 21.1 10 (00:10) 6.39 (00:10) 0 0 0 0 0
31-08-2018 28.9 (18:10) 9.3 (00:00) 19.1 12.78 (22:40) 9.17 (22:50) 0 0 0 0 0
30-08-2018 28 (19:20) 11.5 (00:00) 19.8 10.83 (22:20) 6.94 (22:20) 0 0 0 0 0
29-08-2018 27 (16:30) 11.7 (00:00) 19.3 9.17 (21:40) 6.11 (21:40) 0 0 0 0 0
28-08-2018 28.8 (16:30) 14.3 (00:00) 21.5 14.17 (17:00) 8.33 (17:00) 0 0 0 0 0
27-08-2018 31.1 (16:50) 12.2 (00:00) 21.7 7.78 (16:00) 5.28 (18:20) 0 0 0 0 0
26-08-2018 28.3 (19:30) 9.9 (00:00) 19.1 11.39 (00:40) 5.83 (00:30) 0 0 0 0 0
25-08-2018 26.1 (18:20) 9 (00:00) 17.6 11.11 (22:20) 7.78 (22:10) 0 0 0 0 0
24-08-2018 27 (18:20) 10 (00:00) 18.5 10.28 (22:00) 7.22 (22:00) 0 0 0 0 0
23-08-2018 30.6 (18:20) 13.1 (00:00) 21.9 7.78 (21:30) 5.83 (20:10) 0 0 0 0 0

Gráficas

Temp. máximas Temp. mínimas Temp. medias Precipitaciones Rachas de viento máximas Velocidades máximas media en intervalos de 10 minutos

Datos horarios

Fecha y hora oficial Temperatura (ºC) Velocidad del viento (km/h) Dirección del viento Racha (km/h) Dirección de racha Precipitación (mm) Presión (hPa) Tendencia (hPa) Humedad (%)
2018-09-21 23:00:00 19.1 5 Noroeste 9 Noroeste 0 -- -- 66
2018-09-21 22:00:00 20.1 3 Norte 11 Noroeste 0 -- -- 62
2018-09-21 21:00:00 21.8 5 Noroeste 8 Oeste 0 -- -- 52
2018-09-21 20:00:00 23.7 5 Sudoeste 10 Oeste 0 -- -- 45
2018-09-21 19:00:00 24.8 5 Oeste 11 Noroeste 0 -- -- 40
2018-09-21 18:00:00 24.6 6 Oeste 16 Oeste 0 -- -- 39
2018-09-21 17:00:00 25 8 Oeste 16 Noroeste 0 -- -- 37
2018-09-21 16:00:00 24.3 5 Noroeste 13 Sudoeste 0 -- -- 39
2018-09-21 15:00:00 23.1 6 Oeste 14 Oeste 0 -- -- 45
2018-09-21 14:00:00 22.3 9 Sudoeste 15 Sudoeste 0 -- -- 44
2018-09-21 13:00:00 21.5 6 Oeste 13 Sudoeste 0 -- -- 49
2018-09-21 12:00:00 17.9 4 Oeste 9 Noroeste 0 -- -- 64
2018-09-21 11:00:00 15.4 6 Noroeste 13 Oeste 0 -- -- 71
2018-09-21 10:00:00 13.9 3 Noroeste 6 Noroeste 0 -- -- 76
2018-09-21 09:00:00 12.5 3 Oeste 8 Noroeste 0 -- -- 77
2018-09-21 08:00:00 12.1 3 Noroeste 12 Norte 0 -- -- 78
2018-09-21 07:00:00 12.9 7 Noroeste 10 Noroeste 0 -- -- 74
2018-09-21 06:00:00 13.5 9 Oeste 13 Noroeste 0 -- -- 73
2018-09-21 05:00:00 13.3 10 Noroeste 13 Norte 0 -- -- 74
2018-09-21 04:00:00 13.7 11 Norte 13 Norte 0 -- -- 72
2018-09-21 03:00:00 15 10 Noroeste 19 Noroeste 0 -- -- 66
2018-09-21 02:00:00 15.5 12 Noroeste 17 Noroeste 0 -- -- 60
2018-09-21 01:00:00 16.9 6 Norte 18 Noroeste 0 -- -- 54
2018-09-21 00:00:00 18.4 12 Noroeste 17 Noroeste 0 -- -- 49
2018-09-20 23:00:00 19.4 6 Noroeste 21 Noroeste 0 -- -- 46
2018-09-20 22:00:00 20.8 8 Noroeste 16 Sudoeste 0 -- -- 35
2018-09-20 21:00:00 22.2 9 Oeste 19 Oeste 0 -- -- 34
2018-09-20 20:00:00 24.9 14 Oeste 30 Sudoeste 0 -- -- 27
2018-09-20 19:00:00 27.2 18 Sudoeste 37 Sudoeste 0 -- -- 26
2018-09-20 18:00:00 28.5 22 Sudoeste 41 Sudoeste 0 -- -- 26
2018-09-20 17:00:00 29.2 25 Sudoeste 37 Sudoeste 0 -- -- 26
2018-09-20 16:00:00 28.5 19 Sudoeste 31 Sudoeste 0 -- -- 33
2018-09-20 15:00:00 26.9 11 Sudoeste 19 Sudoeste 0 -- -- 38
2018-09-20 14:00:00 25.7 9 Sudoeste 17 Sudoeste 0 -- -- 40
2018-09-20 13:00:00 23.8 6 Oeste 11 Sudoeste 0 -- -- 46
2018-09-20 12:00:00 21.3 2 Noroeste 11 Noroeste 0 -- -- 60
2018-09-20 11:00:00 18.3 4 Norte 8 Noroeste 0 -- -- 69
2018-09-20 10:00:00 14.3 5 Norte 6 Nordeste 0 -- -- 79
2018-09-20 09:00:00 10.8 6 Nordeste 9 Nordeste 0 -- -- 88
2018-09-20 08:00:00 9.8 8 Norte 10 Norte 0 -- -- 88
2018-09-20 07:00:00 10.5 7 Norte 10 Nordeste 0 -- -- 85
2018-09-20 06:00:00 11.1 5 Nordeste 9 Norte 0 -- -- 86
2018-09-20 05:00:00 11.4 6 Norte 9 Norte 0 -- -- 85
2018-09-20 04:00:00 13.3 6 Nordeste 10 Nordeste 0 -- -- 73
2018-09-20 03:00:00 13.5 5 Nordeste 10 Este 0 -- -- 74
2018-09-20 02:00:00 15.3 4 Norte 7 Norte 0 -- -- 73
2018-09-20 01:00:00 17 7 Norte 11 Norte 0 -- -- 63
2018-09-20 00:00:00 19.4 5 Norte 11 Norte 0 -- -- 54
2018-09-19 23:00:00 19.5 2 Noroeste 10 Oeste 0 -- -- 56
2018-09-19 22:00:00 21.5 9 Sudoeste 12 Sudoeste 0 -- -- 43
2018-09-19 21:00:00 23 10 Sudeste 12 Sudeste 0 -- -- 37
2018-09-19 20:00:00 26.6 6 Sur 14 Sur 0 -- -- 33
2018-09-19 19:00:00 27.9 8 Sur 18 Sudoeste 0 -- -- 30
2018-09-19 18:00:00 28.2 9 Sudoeste 22 Sur 0 -- -- 31
2018-09-19 17:00:00 27.6 6 Oeste 18 Noroeste 0 -- -- 39
2018-09-19 16:00:00 27.3 7 Sur 21 Oeste 0 -- -- 39
2018-09-19 15:00:00 26.6 11 Sudoeste 20 Sudoeste 0 -- -- 38
2018-09-19 14:00:00 25.3 9 Sudoeste 16 Sudoeste 0 -- -- 42
2018-09-19 13:00:00 23.6 7 Sudoeste 13 Noroeste 0 -- -- 53
2018-09-19 12:00:00 20.9 2 Norte 8 Norte 0 -- -- 65
2018-09-19 11:00:00 17.6 6 Norte 11 Norte 0 -- -- 74
2018-09-19 10:00:00 14.7 5 Norte 8 Norte 0 -- -- 80
2018-09-19 09:00:00 11.6 5 Nordeste 8 Norte 0 -- -- 88
2018-09-19 08:00:00 10.6 6 Norte 8 Este 0 -- -- 86
2018-09-19 07:00:00 10.7 6 Norte 9 Norte 0 -- -- 88
2018-09-19 06:00:00 10.8 7 Norte 10 Norte 0 -- -- 87
2018-09-19 05:00:00 11.7 6 Norte 8 Norte 0 -- -- 83
2018-09-19 04:00:00 12.6 5 Nordeste 9 Nordeste 0 -- -- 78
2018-09-19 03:00:00 14 5 Norte 6 Norte 0 -- -- 73
2018-09-19 02:00:00 17.1 2 Noroeste 6 Norte 0 -- -- 54
2018-09-19 01:00:00 17.4 6 Norte 10 Noroeste 0 -- -- 55
2018-09-19 00:00:00 18.8 2 Noroeste 13 Noroeste 0 -- -- 49
2018-09-18 23:00:00 19.3 10 Noroeste 19 Noroeste 0 -- -- 49
2018-09-18 22:00:00 20.6 10 Noroeste 17 Noroeste 0 -- -- 48
2018-09-18 21:00:00 22 9 Noroeste 13 Noroeste 0 -- -- 43
2018-09-18 20:00:00 24 12 Noroeste 16 Noroeste 0 -- -- 38
2018-09-18 19:00:00 26.4 13 Noroeste 22 Noroeste 0 -- -- 36
2018-09-18 18:00:00 28.5 13 Sudoeste 27 Oeste 0 -- -- 25
2018-09-18 17:00:00 28.1 14 Oeste 31 Sudoeste 0 -- -- 24
2018-09-18 16:00:00 27.5 19 Oeste 35 Oeste 0 -- -- 28
2018-09-18 15:00:00 27 20 Sudoeste 32 Sudoeste 0 -- -- 32
2018-09-18 14:00:00 25.5 12 Sudoeste 22 Sudoeste 0 -- -- 40
2018-09-18 13:00:00 23.5 9 Sudoeste 17 Sudoeste 0 -- -- 49
2018-09-18 12:00:00 21.4 3 Oeste 6 Oeste 0 -- -- 59
2018-09-18 11:00:00 18.8 4 Noroeste 8 Noroeste 0 -- -- 73
2018-09-18 10:00:00 16.3 4 Norte 6 Noroeste 0 -- -- 80
2018-09-18 09:00:00 13.7 3 Noroeste 12 Este 0 -- -- 85
2018-09-18 08:00:00 13.3 5 Este 8 Este 0 -- -- 86
2018-09-18 07:00:00 13.8 7 Este 9 Este 0 -- -- 85
2018-09-18 06:00:00 14.1 7 Norte 9 Norte 0 -- -- 86
2018-09-18 05:00:00 15 4 Nordeste 9 Nordeste 0 -- -- 84
2018-09-18 04:00:00 16.1 4 Norte 9 Norte 0 -- -- 83
2018-09-18 03:00:00 17.2 7 Norte 11 Norte 0 -- -- 77
2018-09-18 02:00:00 18.3 9 Norte 14 Noroeste 0 -- -- 72
2018-09-18 01:00:00 19.9 8 Noroeste 15 Oeste 0 -- -- 61
2018-09-18 00:00:00 19.9 6 Oeste 9 Noroeste 0 -- -- 63
2018-09-17 23:00:00 19.6 6 Noroeste 9 Noroeste 0 -- -- 69
2018-09-17 22:00:00 20.8 2 Sur 26 Sudoeste 0.2 -- -- 61
2018-09-17 21:00:00 21 27 Sudoeste 49 Sudoeste 0.2 -- -- 63
2018-09-17 20:00:00 26.6 10 Sur 28 Sur 0 -- -- 34
2018-09-17 19:00:00 28.8 7 Sur 17 Sudoeste 0 -- -- 30
2018-09-17 18:00:00 29.2 11 Sudoeste 20 Sur 0 -- -- 29
2018-09-17 17:00:00 28.6 4 Sur 16 Sudoeste 0 -- -- 34
2018-09-17 16:00:00 28.4 11 Sudoeste 27 Sudoeste 0 -- -- 32
2018-09-17 15:00:00 27.8 8 Sudoeste 18 Sur 0 -- -- 37
2018-09-17 14:00:00 26.5 8 Sudoeste 15 Sudoeste 0 -- -- 39
2018-09-17 13:00:00 24.8 4 Noroeste 9 Oeste 0 -- -- 48
2018-09-17 12:00:00 21.9 2 Norte 6 Noroeste 0 -- -- 57
2018-09-17 11:00:00 18.3 4 Noroeste 7 Noroeste 0 -- -- 67
2018-09-17 10:00:00 14.6 4 Norte 6 Norte 0 -- -- 80
2018-09-17 09:00:00 11.5 6 Norte 10 Nordeste 0 -- -- 86
2018-09-17 08:00:00 10.9 8 Nordeste 9 Nordeste 0 -- -- 84
2018-09-17 07:00:00 10.4 7 Norte 8 Norte 0 -- -- 87
2018-09-17 06:00:00 11 5 Nordeste 8 Nordeste 0 -- -- 82
2018-09-17 05:00:00 11.8 6 Nordeste 9 Nordeste 0 -- -- 78
2018-09-17 04:00:00 12 4 Norte 9 Norte 0 -- -- 80
2018-09-17 03:00:00 12.6 6 Norte 8 Norte 0 -- -- 80
2018-09-17 02:00:00 13.8 5 Norte 9 Noroeste 0 -- -- 76
2018-09-17 01:00:00 14.8 8 Norte 12 Norte 0 -- -- 70
2018-09-17 00:00:00 17.4 8 Norte 9 Norte 0 -- -- 55
2018-09-16 23:00:00 21.5 7 Nordeste 8 Este 0 -- -- 31
2018-09-16 22:00:00 21.8 6 Nordeste 10 Norte 0 -- -- 32
2018-09-16 21:00:00 21.7 10 Nordeste 14 Norte 0 -- -- 33
2018-09-16 20:00:00 23.8 8 Norte 18 Noroeste 0 -- -- 36
2018-09-16 19:00:00 26.6 4 Noroeste 11 Oeste 0 -- -- 40
2018-09-16 18:00:00 27.9 6 Noroeste 16 Oeste 0 -- -- 33
2018-09-16 17:00:00 28.6 6 Noroeste 16 Noroeste 0 -- -- 35
2018-09-16 16:00:00 27.3 8 Noroeste 19 Noroeste 0 -- -- 40
2018-09-16 15:00:00 26.8 11 Oeste 21 Oeste 0 -- -- 40
2018-09-16 14:00:00 25.5 7 Oeste 15 Oeste 0 -- -- 49
2018-09-16 13:00:00 23.8 9 Oeste 17 Oeste 0 -- -- 53
2018-09-16 12:00:00 22 5 Oeste 10 Sudoeste 0 -- -- 59
2018-09-16 11:00:00 19.8 3 Noroeste 6 Noroeste 0 -- -- 64
2018-09-16 10:00:00 16.4 4 Norte 7 Norte 0 -- -- 77
2018-09-16 09:00:00 13.2 5 Norte 8 Norte 0 -- -- 87
2018-09-16 08:00:00 12.7 6 Norte 13 Este 0 -- -- 84
2018-09-16 07:00:00 13.1 8 Nordeste 10 Nordeste 0 -- -- 83
2018-09-16 06:00:00 14 9 Nordeste 12 Este 0 -- -- 80
2018-09-16 05:00:00 14.5 9 Este 12 Este 0 -- -- 77
2018-09-16 04:00:00 15.6 6 Norte 11 Norte 0 -- -- 73
2018-09-16 03:00:00 16.3 7 Norte 19 Este 0 -- -- 74
2018-09-16 02:00:00 19.4 17 Este 22 Este 0 -- -- 54
2018-09-16 01:00:00 20.8 12 Sudeste 24 Sudeste 0 -- -- 49
2018-09-16 00:00:00 19.7 9 Noroeste 23 Oeste 0 -- -- 62
2018-09-15 23:00:00 23.1 8 Sudeste 9 Sudeste 0 -- -- 38
2018-09-15 22:00:00 23.7 5 Sudeste 6 Sudeste 0 -- -- 38
2018-09-15 21:00:00 25.8 0 Calma 3 Nordeste 0 -- -- 33
2018-09-15 20:00:00 27.5 0 Calma 9 Oeste 0 -- -- 29
2018-09-15 19:00:00 28.9 5 Oeste 10 Oeste 0 -- -- 33
2018-09-15 18:00:00 29.1 6 Oeste 17 Sudoeste 0 -- -- 32
2018-09-15 17:00:00 28.6 8 Sudoeste 17 Oeste 0 -- -- 32
2018-09-15 16:00:00 27.4 4 Noroeste 13 Oeste 0 -- -- 40
2018-09-15 15:00:00 26 7 Norte 15 Norte 0 -- -- 46
2018-09-15 14:00:00 25 9 Noroeste 13 Noroeste 0 -- -- 50
2018-09-15 13:00:00 23.3 6 Norte 14 Norte 0 -- -- 56
2018-09-15 12:00:00 20.7 5 Norte 17 Noroeste 0 -- -- 63
2018-09-15 11:00:00 18.6 7 Norte 12 Norte 0 -- -- 70
2018-09-15 10:00:00 15.8 8 Nordeste 11 Norte 0 -- -- 81
2018-09-15 09:00:00 12.7 8 Norte 12 Norte 0 -- -- 91
2018-09-15 08:00:00 12.1 5 Norte 13 Nordeste 0 -- -- 89
2018-09-15 07:00:00 13.5 13 Nordeste 22 Nordeste 0 -- -- 86
2018-09-15 06:00:00 13.4 9 Nordeste 13 Nordeste 0 -- -- 88
2018-09-15 05:00:00 13.8 10 Nordeste 13 Nordeste 0 -- -- 88
2018-09-15 04:00:00 14.2 10 Norte 12 Norte 0 -- -- 86
2018-09-15 03:00:00 15.3 7 Nordeste 17 Nordeste 0 -- -- 82
2018-09-15 02:00:00 16.3 9 Nordeste 26 Este 0 -- -- 79
2018-09-15 01:00:00 17.7 21 Este 45 Este 0 -- -- 74
2018-09-15 00:00:00 19 30 Este 46 Este 0 -- -- 69
2018-09-14 23:00:00 21.2 30 Este 43 Este 0 -- -- 61
2018-09-14 22:00:00 23.9 6 Sudeste 10 Este 0 -- -- 41
2018-09-14 21:00:00 25.5 0 Calma -- -- 0 -- -- 39
2018-09-14 20:00:00 27.1 0 Calma 6 Nordeste 0 -- -- 36
2018-09-14 19:00:00 28.1 3 Oeste 15 Oeste 0 -- -- 37
2018-09-14 18:00:00 27.8 10 Oeste 18 Noroeste 0 -- -- 37
2018-09-14 17:00:00 28.2 8 Oeste 17 Noroeste 0 -- -- 37
2018-09-14 16:00:00 27.7 6 Oeste 13 Sudoeste 0 -- -- 35
2018-09-14 15:00:00 26.1 6 Noroeste 11 Oeste 0 -- -- 44
2018-09-14 14:00:00 24.3 6 Norte 18 Este 0 -- -- 46
2018-09-14 13:00:00 23 3 Sudoeste 11 Nordeste 0 -- -- 53
2018-09-14 12:00:00 20.3 6 Nordeste 17 Este 0 -- -- 59
2018-09-14 11:00:00 17.6 8 Norte 19 Norte 0 -- -- 69
2018-09-14 10:00:00 15.2 13 Nordeste 20 Nordeste 0 -- -- 84
2018-09-14 09:00:00 11.8 5 Norte 8 Nordeste 0 -- -- 90
2018-09-14 08:00:00 10.8 6 Nordeste 9 Norte 0 -- -- 90
2018-09-14 07:00:00 11.7 2 Norte 6 Nordeste 0 -- -- 88
2018-09-14 06:00:00 12.1 4 Norte 7 Norte 0 -- -- 87
2018-09-14 05:00:00 13.9 3 Norte 6 Este 0 -- -- 81
2018-09-14 04:00:00 14.5 4 Nordeste 6 Este 0 -- -- 79
2018-09-14 03:00:00 14.8 5 Nordeste 9 Nordeste 0 -- -- 78
2018-09-14 02:00:00 16 5 Nordeste 20 Nordeste 0 -- -- 74
2018-09-14 01:00:00 16.7 8 Nordeste 12 Nordeste 0 -- -- 71
2018-09-14 00:00:00 17.8 7 Nordeste 22 Nordeste 0 -- -- 67
2018-09-13 23:00:00 19.1 17 Norte 29 Nordeste 0 -- -- 47
2018-09-13 22:00:00 22.7 12 Este 15 Este 0 -- -- 31
2018-09-13 21:00:00 23.3 15 Este 16 Este 0 -- -- 31
2018-09-13 20:00:00 25.4 8 Nordeste 9 Nordeste 0 -- -- 37
2018-09-13 19:00:00 27.4 4 Norte 10 Norte 0 -- -- 33
2018-09-13 18:00:00 27.5 3 Nordeste 14 Oeste 0 -- -- 36
2018-09-13 17:00:00 27.5 7 Oeste 16 Oeste 0 -- -- 30
2018-09-13 16:00:00 27.2 6 Oeste 20 Oeste 0 -- -- 34
2018-09-13 15:00:00 26.2 11 Oeste 19 Sudoeste 0 -- -- 45
2018-09-13 14:00:00 25.4 8 Sur 15 Sudeste 0 -- -- 47
2018-09-13 13:00:00 24 5 Sudeste 12 Este 0 -- -- 51
2018-09-13 12:00:00 21.5 5 Noroeste 12 Sudoeste 0 -- -- 62
2018-09-13 11:00:00 19.1 3 Norte 5 Noroeste 0 -- -- 71
2018-09-13 10:00:00 16.1 0 Calma 3 Noroeste 0 -- -- 82
2018-09-13 09:00:00 12.8 3 Norte 6 Norte 0 -- -- 91
2018-09-13 08:00:00 12.1 3 Nordeste 6 Norte 0 -- -- 91
2018-09-13 07:00:00 12.7 5 Norte 11 Norte 0 -- -- 90
2018-09-13 06:00:00 13.1 10 Norte 12 Nordeste 0 -- -- 89
2018-09-13 05:00:00 14.2 11 Nordeste 15 Nordeste 0 -- -- 87
2018-09-13 04:00:00 15 10 Norte 17 Nordeste 0 -- -- 82
2018-09-13 03:00:00 15.8 9 Norte 13 Este 0 -- -- 79
2018-09-13 02:00:00 16.5 6 Nordeste 11 Norte 0 -- -- 76
2018-09-13 01:00:00 18.1 7 Nordeste 14 Este 0 -- -- 66
2018-09-13 00:00:00 17.9 10 Este 18 Nordeste 0 -- -- 68
2018-09-12 23:00:00 18.4 12 Norte 14 Norte 0 -- -- 70
2018-09-12 22:00:00 21.8 11 Norte 15 Norte 0 -- -- 58
2018-09-12 21:00:00 26 3 Sudoeste 4 Oeste 0 -- -- 40
2018-09-12 20:00:00 27.8 0 Calma 8 Noroeste 0 -- -- 37
2018-09-12 19:00:00 28.4 5 Noroeste 11 Noroeste 0 -- -- 35
2018-09-12 18:00:00 28.5 5 Noroeste 13 Oeste 0 -- -- 35
2018-09-12 17:00:00 28.4 7 Oeste 17 Noroeste 0 -- -- 34
2018-09-12 16:00:00 27.7 8 Oeste 20 Oeste 0 -- -- 40
2018-09-12 15:00:00 26.7 10 Oeste 18 Oeste 0 -- -- 43
2018-09-12 14:00:00 25.6 12 Sudoeste 17 Sudoeste 0 -- -- 41
2018-09-12 13:00:00 23.8 2 Norte 9 Norte 0 -- -- 52
2018-09-12 12:00:00 21.5 4 Norte 9 Norte 0 -- -- 57
2018-09-12 11:00:00 18.6 4 Norte 10 Norte 0 -- -- 69
2018-09-12 10:00:00 15.5 6 Norte 9 Norte 0 -- -- 78
2018-09-12 09:00:00 12.2 6 Nordeste 8 Nordeste 0 -- -- 89
2018-09-12 08:00:00 11.5 6 Noroeste 9 Nordeste 0 -- -- 87
2018-09-12 07:00:00 12.1 5 Nordeste 10 Nordeste 0 -- -- 86
2018-09-12 06:00:00 12.1 8 Nordeste 12 Norte 0 -- -- 85
2018-09-12 05:00:00 12.6 10 Norte 11 Norte 0 -- -- 86
2018-09-12 04:00:00 13.7 6 Norte 13 Nordeste 0 -- -- 82
2018-09-12 03:00:00 14.2 8 Norte 14 Norte 0 -- -- 81
2018-09-12 02:00:00 14.9 10 Norte 17 Norte 0 -- -- 78
2018-09-12 01:00:00 17.7 12 Nordeste 28 Este 0 -- -- 65
2018-09-12 00:00:00 18.9 19 Este 33 Este 0 -- -- 58
2018-09-11 23:00:00 19.4 22 Sudeste 30 Este 0 -- -- 53
2018-09-11 22:00:00 20.7 21 Sudeste 36 Sudeste 0 -- -- 51
2018-09-11 21:00:00 24.1 4 Noroeste 12 Oeste 0 -- -- 40
2018-09-11 20:00:00 26.2 8 Oeste 13 Oeste 0 -- -- 36
2018-09-11 19:00:00 27 9 Noroeste 15 Noroeste 0 -- -- 37
2018-09-11 18:00:00 27.6 10 Oeste 17 Oeste 0 -- -- 34
2018-09-11 17:00:00 27.3 8 Noroeste 19 Noroeste 0 -- -- 38
2018-09-11 16:00:00 27.2 9 Oeste 17 Oeste 0 -- -- 40
2018-09-11 15:00:00 26.2 6 Oeste 14 Oeste 0 -- -- 43
2018-09-11 14:00:00 25.1 6 Oeste 15 Noroeste 0 -- -- 50
2018-09-11 13:00:00 23.9 4 Sudoeste 13 Norte 0 -- -- 52
2018-09-11 12:00:00 22.2 5 Noroeste 12 Oeste 0 -- -- 60
2018-09-11 11:00:00 19.3 4 Norte 9 Nordeste 0 -- -- 70
2018-09-11 10:00:00 15.3 5 Norte 9 Norte 0 -- -- 85
2018-09-11 09:00:00 12.5 7 Nordeste 14 Norte 0 -- -- 90
2018-09-11 08:00:00 11.3 9 Nordeste 12 Este 0 -- -- 91
2018-09-11 07:00:00 11.7 6 Nordeste 10 Norte 0 -- -- 90
2018-09-11 06:00:00 11.8 7 Norte 12 Norte 0 -- -- 90
2018-09-11 05:00:00 11.8 6 Norte 11 Norte 0 -- -- 90
2018-09-11 04:00:00 12.7 7 Nordeste 13 Nordeste 0 -- -- 89
2018-09-11 03:00:00 13.2 10 Norte 14 Norte 0 -- -- 87
2018-09-11 02:00:00 14.2 6 Nordeste 12 Nordeste 0 -- -- 81
2018-09-11 01:00:00 15.7 7 Norte 21 Nordeste 0 -- -- 75
2018-09-11 00:00:00 17.8 11 Nordeste 18 Este 0 -- -- 68
2018-09-10 23:00:00 19.2 11 Nordeste 20 Este 0 -- -- 53
2018-09-10 22:00:00 20.3 6 Nordeste 8 Nordeste 0 -- -- 47
2018-09-10 21:00:00 22.6 7 Este 11 Este 0 -- -- 40
2018-09-10 20:00:00 24.4 6 Este 14 Este 0 -- -- 41
2018-09-10 19:00:00 25.2 4 Nordeste 22 Este 0 -- -- 38
2018-09-10 18:00:00 25.3 5 Nordeste 18 Este 0 -- -- 42
2018-09-10 17:00:00 25.5 7 Norte 14 Nordeste 0 -- -- 41
2018-09-10 16:00:00 24.5 9 Nordeste 21 Nordeste 0 -- -- 43
2018-09-10 15:00:00 23.8 8 Este 25 Este 0 -- -- 47
2018-09-10 14:00:00 22.8 10 Nordeste 22 Nordeste 0 -- -- 55
2018-09-10 13:00:00 21.4 9 Este 22 Nordeste 0 -- -- 57
2018-09-10 12:00:00 19.8 11 Nordeste 21 Nordeste 0 -- -- 64
2018-09-10 11:00:00 17.3 6 Norte 11 Norte 0 -- -- 78
2018-09-10 10:00:00 14.1 6 Noroeste 9 Este 0 -- -- 88
2018-09-10 09:00:00 11 6 Norte 9 Norte 0 -- -- 93
2018-09-10 08:00:00 10.1 5 Norte 8 Norte 0 -- -- 92
2018-09-10 07:00:00 10.8 6 Nordeste 8 Nordeste 0 -- -- 92
2018-09-10 06:00:00 11.3 8 Nordeste 10 Nordeste 0 -- -- 91
2018-09-10 05:00:00 11.9 5 Nordeste 9 Norte 0 -- -- 91
2018-09-10 04:00:00 12.1 6 Norte 12 Norte 0 -- -- 90
2018-09-10 03:00:00 13.2 9 Norte 15 Nordeste 0 -- -- 86
2018-09-10 02:00:00 14.1 9 Este 21 Este 0 -- -- 84
2018-09-10 01:00:00 13.9 14 Este 17 Este 0 -- -- 83
2018-09-10 00:00:00 14.1 9 Norte 14 Norte 0 -- -- 85
2018-09-09 23:00:00 14.9 7 Norte 14 Este 0 -- -- 78
2018-09-09 22:00:00 16.5 14 Este 18 Nordeste 0 -- -- 68
2018-09-09 21:00:00 18.5 16 Nordeste 23 Nordeste 0 -- -- 62
2018-09-09 20:00:00 21.1 12 Norte 21 Nordeste 0 -- -- 49
2018-09-09 19:00:00 22 16 Nordeste 29 Nordeste 0 -- -- 47
2018-09-09 18:00:00 22.1 18 Nordeste 30 Nordeste 0 -- -- 50
2018-09-09 17:00:00 21.7 17 Nordeste 29 Nordeste 0 -- -- 50
2018-09-09 16:00:00 22.9 6 Nordeste 14 Noroeste 0 -- -- 49
2018-09-09 15:00:00 23.6 6 Noroeste 14 Norte 0 -- -- 45
2018-09-09 14:00:00 22.3 6 Noroeste 14 Oeste 0 -- -- 50
2018-09-09 13:00:00 19.7 6 Sur 11 Sur 0 -- -- 59
2018-09-09 12:00:00 17.9 4 Sur 8 Sudoeste 0 -- -- 68
2018-09-09 11:00:00 16 2 Noroeste 4 Noroeste 0 -- -- 80
2018-09-09 10:00:00 15 2 Noroeste 9 Noroeste 0 -- -- 84
2018-09-09 09:00:00 14.3 4 Norte 8 Norte 0 -- -- 87
2018-09-09 08:00:00 13.8 2 Norte 8 Oeste 0 -- -- 89
2018-09-09 07:00:00 14 5 Noroeste 8 Norte 0 -- -- 86
2018-09-09 06:00:00 14.1 6 Norte 10 Norte 0 -- -- 85
2018-09-09 05:00:00 14.6 3 Nordeste 8 Norte 0 -- -- 83
2018-09-09 04:00:00 15.5 6 Sudoeste 26 Sudoeste 0 -- -- 76
2018-09-09 03:00:00 15 26 Sudoeste 40 Sudoeste 0 -- -- 79
2018-09-09 02:00:00 14.1 13 Norte 18 Norte 0 -- -- 84
2018-09-09 01:00:00 15 13 Norte 22 Norte 0 -- -- 80
2018-09-09 00:00:00 16.7 17 Noroeste 30 Oeste 0 -- -- 71
2018-09-08 23:00:00 18.4 11 Norte 19 Norte 0 -- -- 61
2018-09-08 22:00:00 19.8 12 Oeste 21 Sur 0 -- -- 55
2018-09-08 21:00:00 20.8 10 Sudeste 18 Sur 0 -- -- 48
2018-09-08 20:00:00 23.7 13 Sur 25 Sur 0 -- -- 40
2018-09-08 19:00:00 25 16 Sur 26 Sur 0 -- -- 37
2018-09-08 18:00:00 26.5 20 Sudoeste 29 Sudoeste 0 -- -- 34
2018-09-08 17:00:00 26.6 14 Sudoeste 26 Sudoeste 0 -- -- 35
2018-09-08 16:00:00 26.4 13 Sudoeste 22 Sudoeste 0 -- -- 40
2018-09-08 15:00:00 25.4 9 Sur 22 Sudeste 0 -- -- 39
2018-09-08 14:00:00 24.5 8 Sur 18 Sur 0 -- -- 44
2018-09-08 13:00:00 23.2 7 Sur 18 Sur 0 -- -- 49
2018-09-08 12:00:00 21.6 5 Sudeste 12 Este 0 -- -- 54
2018-09-08 11:00:00 18.4 6 Este 14 Norte 0 -- -- 66
2018-09-08 10:00:00 14.4 10 Norte 14 Norte 0 -- -- 82
2018-09-08 09:00:00 12.1 9 Norte 14 Norte 0 -- -- 90
2018-09-08 08:00:00 11 6 Norte 11 Norte 0 -- -- 90
2018-09-08 07:00:00 11.9 4 Noroeste 10 Norte 0 -- -- 88
2018-09-08 06:00:00 12.5 5 Norte 13 Nordeste 0 -- -- 88
2018-09-08 05:00:00 12.4 12 Nordeste 14 Nordeste 0 -- -- 88
2018-09-08 04:00:00 12.2 6 Norte 13 Norte 0 -- -- 87
2018-09-08 03:00:00 13.2 8 Norte 26 Este 0 -- -- 81
2018-09-08 02:00:00 15.2 20 Nordeste 39 Este 0 -- -- 72
2018-09-08 01:00:00 15.7 23 Este 31 Este 0 -- -- 71
2018-09-08 00:00:00 16.2 22 Este 31 Este 0 -- -- 69
2018-09-07 23:00:00 17.4 21 Este 30 Este 0 -- -- 62
2018-09-07 22:00:00 18.5 19 Este 25 Este 0 -- -- 55
2018-09-07 21:00:00 19.6 15 Este 18 Este 0 -- -- 50
2018-09-07 20:00:00 21.9 13 Este 20 Este 0 -- -- 42
2018-09-07 19:00:00 23.4 10 Este 22 Este 0 -- -- 39
2018-09-07 18:00:00 23.7 8 Este 20 Este 0 -- -- 40
2018-09-07 17:00:00 23.1 10 Sudeste 28 Nordeste 0 -- -- 43
2018-09-07 16:00:00 22.4 10 Este 24 Nordeste 0 -- -- 44
2018-09-07 15:00:00 22 13 Este 45 Este 0 -- -- 45
2018-09-07 14:00:00 20.8 14 Este 29 Este 0 -- -- 51
2018-09-07 13:00:00 19.7 17 Nordeste 28 Este 0 -- -- 53
2018-09-07 12:00:00 18.3 17 Este 27 Nordeste 0 -- -- 61
2018-09-07 11:00:00 16.5 17 Nordeste 26 Nordeste 0 -- -- 69
2018-09-07 10:00:00 13.8 9 Nordeste 18 Nordeste 0 -- -- 83
2018-09-07 09:00:00 11.3 12 Nordeste 17 Nordeste 0 -- -- 90
2018-09-07 08:00:00 9.9 4 Norte 9 Norte 0 -- -- 92
2018-09-07 07:00:00 10.2 6 Norte 9 Norte 0 -- -- 91
2018-09-07 06:00:00 11.3 7 Norte 11 Nordeste 0 -- -- 88
2018-09-07 05:00:00 12.1 8 Nordeste 22 Nordeste 0 -- -- 87
2018-09-07 04:00:00 13 15 Este 21 Este 0 -- -- 84
2018-09-07 03:00:00 12.8 11 Este 16 Este 0 -- -- 86
2018-09-07 02:00:00 12.6 8 Este 9 Este 0 -- -- 86
2018-09-07 01:00:00 13.2 7 Este 14 Este 0 -- -- 84
2018-09-07 00:00:00 13.9 7 Este 18 Este 0 -- -- 83
2018-09-06 23:00:00 15.3 13 Este 26 Este 0 -- -- 78
2018-09-06 22:00:00 17.1 15 Nordeste 24 Norte 0 -- -- 69
2018-09-06 21:00:00 17.6 17 Nordeste 28 Nordeste 0 -- -- 64
2018-09-06 20:00:00 19.4 13 Nordeste 19 Nordeste 0 -- -- 57
2018-09-06 19:00:00 20.6 14 Nordeste 29 Nordeste 0 -- -- 51
2018-09-06 18:00:00 19.9 18 Nordeste 35 Nordeste 0 -- -- 53
2018-09-06 17:00:00 20.9 21 Nordeste 34 Nordeste 0 -- -- 52
2018-09-06 16:00:00 20.6 16 Norte 24 Norte 0 -- -- 53
2018-09-06 15:00:00 21.5 11 Norte 21 Nordeste 0 -- -- 51
2018-09-06 14:00:00 21.5 4 Nordeste 18 Este 0 -- -- 52
2018-09-06 13:00:00 20.3 5 Nordeste 18 Norte 0 -- -- 57
2018-09-06 12:00:00 18.8 10 Norte 17 Norte 0 -- -- 62
2018-09-06 11:00:00 16.6 6 Norte 12 Norte 0 -- -- 74
2018-09-06 10:00:00 13.7 5 Nordeste 11 Norte 0 -- -- 89
2018-09-06 09:00:00 11.8 5 Norte 10 Norte 0 -- -- 92
2018-09-06 08:00:00 10.3 4 Norte 8 Noroeste 0 -- -- 92
2018-09-06 07:00:00 11.3 5 Nordeste 9 Nordeste 0 -- -- 92
2018-09-06 06:00:00 11.1 4 Nordeste 5 Nordeste 0 -- -- 91
2018-09-06 05:00:00 11.6 2 Oeste 8 Nordeste 0 -- -- 90
2018-09-06 04:00:00 11.7 6 Este 10 Este 0 -- -- 90
2018-09-06 03:00:00 12.2 5 Norte 12 Nordeste 0 -- -- 89
2018-09-06 02:00:00 12.8 8 Este 14 Nordeste 0 -- -- 88
2018-09-06 01:00:00 13.4 9 Norte 13 Nordeste 0 -- -- 86
2018-09-06 00:00:00 14.4 10 Nordeste 13 Este 0 -- -- 83
2018-09-05 23:00:00 15.6 10 Nordeste 19 Nordeste 0 -- -- 77
2018-09-05 22:00:00 16.2 13 Norte 18 Nordeste 0 -- -- 74
2018-09-05 21:00:00 18.2 15 Nordeste 23 Nordeste 0 -- -- 63
2018-09-05 20:00:00 18.9 10 Nordeste 19 Norte 0 -- -- 63
2018-09-05 19:00:00 20 16 Norte 22 Norte 0 -- -- 56
2018-09-05 18:00:00 21.6 9 Norte 22 Norte 0 -- -- 56
2018-09-05 17:00:00 20.9 14 Norte 22 Nordeste 0 -- -- 58
2018-09-05 16:00:00 21.7 6 Este 20 Norte 0 -- -- 53
2018-09-05 15:00:00 20 6 Este 17 Este 0 -- -- 56
2018-09-05 14:00:00 19.1 3 Nordeste 24 Nordeste 0 -- -- 62
2018-09-05 13:00:00 16.5 20 Este 37 Nordeste 0 -- -- 75
2018-09-05 12:00:00 14.3 22 Nordeste 41 Nordeste 0 -- -- 86
2018-09-05 11:00:00 12.7 34 Nordeste 53 Norte 5.2 -- -- 88
2018-09-05 10:00:00 13.9 11 Noroeste 21 Norte 10.6 -- -- 90
2018-09-05 09:00:00 14.5 17 Norte 27 Oeste 0 -- -- 82
2018-09-05 08:00:00 13.4 9 Noroeste 13 Oeste 0 -- -- 85
2018-09-05 07:00:00 13.7 8 Norte 22 Nordeste 0 -- -- 77
2018-09-05 06:00:00 14 15 Nordeste 25 Nordeste 0 -- -- 75
2018-09-05 05:00:00 13.3 10 Nordeste 13 Nordeste 0 -- -- 82
2018-09-05 04:00:00 13.6 12 Nordeste 15 Nordeste 0 -- -- 78
2018-09-05 03:00:00 14.2 8 Norte 10 Norte 0 -- -- 79
2018-09-05 02:00:00 15.6 5 Norte 26 Este 0 -- -- 71
2018-09-05 01:00:00 16.2 13 Nordeste 26 Nordeste 0 -- -- 69
2018-09-05 00:00:00 16.4 13 Nordeste 36 Este 0 -- -- 69
2018-09-04 23:00:00 17.9 25 Este 49 Este 0 -- -- 66
2018-09-04 22:00:00 19.5 36 Este 49 Este 0 -- -- 61
2018-09-04 21:00:00 21.8 26 Este 42 Este 0 -- -- 54
2018-09-04 20:00:00 24.7 13 Este 27 Este 0 -- -- 43
2018-09-04 19:00:00 25.8 12 Este 21 Este 0 -- -- 42
2018-09-04 18:00:00 25.7 7 Este 22 Este 0 -- -- 41
2018-09-04 17:00:00 25.7 9 Nordeste 27 Nordeste 0 -- -- 42
2018-09-04 16:00:00 25.2 9 Este 32 Este 0 -- -- 41
2018-09-04 15:00:00 24.5 13 Este 30 Este 0 -- -- 40
2018-09-04 14:00:00 22.8 15 Este 26 Este 0 -- -- 44
2018-09-04 13:00:00 21.5 14 Este 28 Este 0 -- -- 46
2018-09-04 12:00:00 21.3 15 Este 27 Este 0 -- -- 43
2018-09-04 11:00:00 19.6 15 Nordeste 24 Nordeste 0 -- -- 36
2018-09-04 10:00:00 17.3 13 Nordeste 21 Nordeste 0 -- -- 38
2018-09-04 09:00:00 14.8 6 Este -- -- -- -- -- 52
2018-09-04 08:00:00 -- -- -- -- -- -- -- -- --
2018-09-04 07:00:00 -- -- -- -- -- -- -- -- --
2018-09-04 06:00:00 -- -- -- -- -- -- -- -- --
2018-09-04 05:00:00 -- -- -- -- -- -- -- -- --
2018-09-04 04:00:00 -- -- -- -- -- -- -- -- --
2018-09-04 03:00:00 -- -- -- -- -- -- -- -- --
2018-09-04 02:00:00 -- -- -- -- -- -- -- -- --
2018-09-04 01:00:00 -- -- -- -- -- -- -- -- --
2018-09-04 00:00:00 -- -- -- -- -- -- -- -- --
2018-09-03 23:00:00 -- -- -- -- -- -- -- -- --
2018-09-03 22:00:00 -- -- -- -- -- -- -- -- --
2018-09-03 21:00:00 -- -- -- -- -- -- -- -- --
2018-09-03 20:00:00 -- -- -- -- -- -- -- -- --
2018-09-03 19:00:00 -- -- -- -- -- -- -- -- --
2018-09-03 18:00:00 -- -- -- -- -- -- -- -- --
2018-09-03 17:00:00 -- -- -- -- -- -- -- -- --
2018-09-03 16:00:00 -- -- -- -- -- -- -- -- --
2018-09-03 15:00:00 -- -- -- -- -- -- -- -- --
2018-09-03 14:00:00 -- -- -- -- -- -- -- -- --
2018-09-03 13:00:00 -- -- -- -- -- -- -- -- --
2018-09-03 12:00:00 -- -- -- -- -- -- -- -- --
2018-09-03 11:00:00 -- -- -- -- -- -- -- -- --
2018-09-03 10:00:00 -- -- -- -- -- -- -- -- --
2018-09-03 09:00:00 -- -- -- -- -- -- -- -- --
2018-09-03 08:00:00 -- -- -- -- -- -- -- -- --
2018-09-03 07:00:00 -- -- -- -- -- -- -- -- --
2018-09-03 06:00:00 -- -- -- -- -- -- -- -- --
2018-09-03 05:00:00 -- -- -- -- -- -- -- -- --
2018-09-03 04:00:00 -- -- -- -- -- -- -- -- --
2018-09-03 03:00:00 -- -- -- -- -- -- -- -- --
2018-09-03 02:00:00 -- -- -- -- -- -- -- -- --
2018-09-03 01:00:00 -- -- -- -- -- -- -- -- --
2018-09-03 00:00:00 -- -- -- -- -- -- -- -- --
2018-09-02 23:00:00 20.6 15 Nordeste 21 Nordeste 0 -- -- 45
2018-09-02 22:00:00 21.8 15 Nordeste 18 Norte 0 -- -- 48
2018-09-02 21:00:00 24.3 14 Norte 22 Norte 0 -- -- 45
2018-09-02 20:00:00 30.4 0 Calma 8 Oeste 0 -- -- 32
2018-09-02 19:00:00 31.3 4 Sudoeste 13 Oeste 0 -- -- 32
2018-09-02 18:00:00 31 7 Oeste 17 Oeste 0 -- -- 32
2018-09-02 17:00:00 31.2 12 Sudoeste 22 Sudoeste 0 -- -- 28
2018-09-02 16:00:00 30.7 12 Sudoeste 25 Sudoeste 0 -- -- 30
2018-09-02 15:00:00 29.5 11 Sudoeste 20 Sudoeste 0 -- -- 32
2018-09-02 14:00:00 28 6 Oeste 14 Noroeste 0 -- -- 41
2018-09-02 13:00:00 26.5 4 Norte 14 Noroeste 0 -- -- 47
2018-09-02 12:00:00 24.6 6 Norte 12 Norte 0 -- -- 51
2018-09-02 11:00:00 21.6 5 Norte 8 Norte 0 -- -- 56
2018-09-02 10:00:00 17.7 5 Norte 9 Nordeste 0 -- -- 75
2018-09-02 09:00:00 14.3 7 Nordeste 11 Nordeste 0 -- -- 85
2018-09-02 08:00:00 12.8 9 Nordeste 10 Nordeste 0 -- -- 87
2018-09-02 07:00:00 13.2 6 Norte 12 Nordeste 0 -- -- 86
2018-09-02 06:00:00 13.7 9 Nordeste 14 Norte 0 -- -- 85
2018-09-02 05:00:00 14.2 10 Norte 18 Norte 0 -- -- 84
2018-09-02 04:00:00 17.2 9 Norte 37 Este 0 -- -- 73
2018-09-02 03:00:00 18 14 Este 26 Este 0 -- -- 74
2018-09-02 02:00:00 19 10 Nordeste 22 Norte 0 -- -- 67
2018-09-02 01:00:00 19.3 11 Nordeste 21 Este 0 -- -- 63
2018-09-02 00:00:00 20.2 18 Este 21 Este 0 -- -- 54
2018-09-01 23:00:00 22.4 16 Este 24 Este 0 -- -- 43
2018-09-01 22:00:00 24.4 5 Nordeste 6 Nordeste 0 -- -- 43
2018-09-01 21:00:00 25.8 5 Noroeste 9 Noroeste 0 -- -- 42
2018-09-01 20:00:00 28.6 6 Noroeste 13 Oeste 0 -- -- 38
2018-09-01 19:00:00 29.6 6 Noroeste 14 Noroeste 0 -- -- 37
2018-09-01 18:00:00 29.6 11 Oeste 19 Oeste 0 -- -- 35
2018-09-01 17:00:00 29.7 4 Noroeste 16 Este 0 -- -- 30
2018-09-01 16:00:00 28.4 9 Este 21 Este 0 -- -- 39
2018-09-01 15:00:00 27.5 8 Nordeste 17 Este 0 -- -- 41
2018-09-01 14:00:00 26.5 6 Este 17 Sudeste 0 -- -- 45
2018-09-01 13:00:00 25.1 6 Sudeste 21 Este 0 -- -- 45
2018-09-01 12:00:00 23.1 8 Nordeste 13 Norte 0 -- -- 52
2018-09-01 11:00:00 19.6 5 Norte 12 Noroeste 0 -- -- 67
2018-09-01 10:00:00 16.7 8 Norte 11 Norte 0 -- -- 76
2018-09-01 09:00:00 14.4 7 Nordeste 12 Nordeste 0 -- -- 85
2018-09-01 08:00:00 12.5 6 Nordeste 14 Nordeste 0 -- -- 89
2018-09-01 07:00:00 12.4 9 Nordeste 10 Nordeste 0 -- -- 87
2018-09-01 06:00:00 13.1 6 Norte 8 Norte 0 -- -- 88
2018-09-01 05:00:00 13.8 4 Norte 10 Norte 0 -- -- 85
2018-09-01 04:00:00 14.5 8 Norte 10 Este 0 -- -- 81
2018-09-01 03:00:00 16.1 9 Este 19 Este 0 -- -- 73
2018-09-01 02:00:00 17.4 14 Este 30 Este 0 -- -- 67
2018-09-01 01:00:00 18.4 22 Este 36 Este 0 -- -- 64
2018-09-01 00:00:00 19.5 23 Este 42 Este 0 -- -- 59
2018-08-31 23:00:00 20.9 32 Este 46 Este 0 -- -- 53
2018-08-31 22:00:00 22.6 26 Este 35 Este 0 -- -- 49
2018-08-31 21:00:00 25.6 6 Sudeste 8 Sudeste 0 -- -- 35
2018-08-31 20:00:00 28.6 6 Oeste 12 Oeste 0 -- -- 32
2018-08-31 19:00:00 28.7 9 Oeste 14 Sudoeste 0 -- -- 30
2018-08-31 18:00:00 28.3 5 Norte 15 Norte 0 -- -- 29
2018-08-31 17:00:00 28.5 7 Oeste 16 Sudoeste 0 -- -- 33
2018-08-31 16:00:00 27.8 3 Oeste 12 Norte 0 -- -- 27
2018-08-31 15:00:00 26.5 4 Norte 18 Nordeste 0 -- -- 31
2018-08-31 14:00:00 25.3 3 Este 15 Sur 0 -- -- 36
2018-08-31 13:00:00 23.5 5 Norte 14 Norte 0 -- -- 43
2018-08-31 12:00:00 20.9 5 Norte 14 Norte 0 -- -- 48
2018-08-31 11:00:00 18.1 5 Norte 13 Norte 0 -- -- 60
2018-08-31 10:00:00 13.9 9 Norte 14 Norte 0 -- -- 69
2018-08-31 09:00:00 10.9 8 Norte 11 Norte 0 -- -- 80
2018-08-31 08:00:00 9.3 8 Norte 10 Norte 0 -- -- 88
2018-08-31 07:00:00 9.8 4 Noroeste 12 Norte 0 -- -- 87
2018-08-31 06:00:00 10.6 10 Norte 12 Norte 0 -- -- 88
2018-08-31 05:00:00 12.5 7 Norte 11 Nordeste 0 -- -- 85
2018-08-31 04:00:00 14 7 Norte 17 Este 0 -- -- 85
2018-08-31 03:00:00 15 8 Nordeste 13 Nordeste 0 -- -- 82
2018-08-31 02:00:00 15.6 8 Nordeste 15 Este 0 -- -- 81
2018-08-31 01:00:00 16.7 5 Nordeste 16 Nordeste 0 -- -- 76
2018-08-31 00:00:00 18.2 14 Este 30 Este 0 -- -- 70
2018-08-30 23:00:00 19.8 22 Este 39 Este 0 -- -- 64
2018-08-30 22:00:00 22.2 15 Norte 24 Norte 0 -- -- 52
2018-08-30 21:00:00 25.7 2 Sur 5 Sur 0 -- -- 38
2018-08-30 20:00:00 27.1 3 Sur 15 Sudoeste 0 -- -- 37
2018-08-30 19:00:00 27.9 4 Sudoeste 17 Sudoeste 0 -- -- 35
2018-08-30 18:00:00 27.6 10 Oeste 20 Oeste 0 -- -- 40
2018-08-30 17:00:00 27.1 12 Sudoeste 23 Sudoeste 0 -- -- 39
2018-08-30 16:00:00 27 7 Oeste 17 Noroeste 0 -- -- 42
2018-08-30 15:00:00 25.9 8 Oeste 14 Oeste 0 -- -- 45
2018-08-30 14:00:00 24.4 4 Norte 14 Este 0 -- -- 48
2018-08-30 13:00:00 22.8 6 Nordeste 15 Nordeste 0 -- -- 52
2018-08-30 12:00:00 20.7 4 Este 13 Norte 0 -- -- 61
2018-08-30 11:00:00 17.9 8 Norte 13 Noroeste 0 -- -- 72
2018-08-30 10:00:00 15.9 4 Norte 9 Este 0 -- -- 79
2018-08-30 09:00:00 12.9 7 Este 9 Este 0 -- -- 89
2018-08-30 08:00:00 11.5 5 Nordeste 11 Norte 0 -- -- 91
2018-08-30 07:00:00 11.8 9 Norte 15 Norte 0 -- -- 91
2018-08-30 06:00:00 12.4 7 Norte 21 Nordeste 0 -- -- 88
2018-08-30 05:00:00 13.3 13 Nordeste 22 Nordeste 0 -- -- 86
2018-08-30 04:00:00 13.6 14 Nordeste 19 Nordeste 0 -- -- 86
2018-08-30 03:00:00 14.1 12 Nordeste 18 Este 0 -- -- 84
2018-08-30 02:00:00 14.6 7 Nordeste 20 Este 0 -- -- 82
2018-08-30 01:00:00 15.6 13 Nordeste 21 Nordeste 0 -- -- 78
2018-08-30 00:00:00 16.7 13 Nordeste 30 Nordeste 0 -- -- 74
2018-08-29 23:00:00 18.7 14 Este 31 Este 0 -- -- 66
2018-08-29 22:00:00 21 22 Este 33 Este 0 -- -- 58
2018-08-29 21:00:00 24.5 3 Noroeste 9 Noroeste 0 -- -- 40
2018-08-29 20:00:00 26.2 7 Noroeste 13 Oeste 0 -- -- 34
2018-08-29 19:00:00 26.9 9 Oeste 21 Oeste 0 -- -- 37
2018-08-29 18:00:00 26.6 10 Noroeste 24 Noroeste 0 -- -- 41
2018-08-29 17:00:00 26.7 15 Noroeste 23 Oeste 0 -- -- 43
2018-08-29 16:00:00 26.3 13 Noroeste 22 Oeste 0 -- -- 43
2018-08-29 15:00:00 25.8 11 Noroeste 20 Oeste 0 -- -- 44
2018-08-29 14:00:00 24.9 7 Nordeste 19 Nordeste 0 -- -- 44
2018-08-29 13:00:00 23.9 4 Norte 18 Nordeste 0 -- -- 50
2018-08-29 12:00:00 22.1 10 Nordeste 18 Norte 0 -- -- 55
2018-08-29 11:00:00 19 10 Norte 16 Norte 0 -- -- 69
2018-08-29 10:00:00 15.7 9 Norte 14 Norte 0 -- -- 80
2018-08-29 09:00:00 12.7 7 Norte 10 Norte 0 -- -- 89
2018-08-29 08:00:00 11.7 7 Norte 12 Nordeste 0 -- -- 91
2018-08-29 07:00:00 12.1 9 Norte 13 Norte 0 -- -- 90
2018-08-29 06:00:00 12.7 4 Norte 13 Noroeste 0 -- -- 89
2018-08-29 05:00:00 14.8 8 Norte 14 Norte 0 -- -- 84
2018-08-29 04:00:00 16.1 6 Norte 17 Norte 0 -- -- 78
2018-08-29 03:00:00 15.9 10 Norte 17 Noroeste 0 -- -- 80
2018-08-29 02:00:00 17.5 14 Noroeste 22 Noroeste 0 -- -- 73
2018-08-29 01:00:00 18.2 4 Norte 8 Nordeste 0 -- -- 69
2018-08-29 00:00:00 18.3 3 Norte 11 Norte 0 -- -- 68
2018-08-28 23:00:00 19.9 8 Noroeste 28 Norte 0 -- -- 58
2018-08-28 22:00:00 21.4 14 Noroeste 22 Noroeste 0 -- -- 51
2018-08-28 21:00:00 23.1 14 Noroeste 19 Noroeste 0 -- -- 46
2018-08-28 20:00:00 25 7 Noroeste 13 Noroeste 0 -- -- 42
2018-08-28 19:00:00 24.6 4 Norte 14 Norte 0 -- -- 42
2018-08-28 18:00:00 23.5 11 Norte 41 Noroeste 0 -- -- 46
2018-08-28 17:00:00 25.5 30 Noroeste 51 Noroeste 0 -- -- 36
2018-08-28 16:00:00 28.4 12 Sudoeste 25 Sudoeste 0 -- -- 36
2018-08-28 15:00:00 28.3 21 Sudoeste 32 Sudoeste 0 -- -- 33
2018-08-28 14:00:00 26.4 15 Sudoeste 24 Sudoeste 0 -- -- 37
2018-08-28 13:00:00 25.1 12 Oeste 22 Oeste 0 -- -- 40
2018-08-28 12:00:00 23.5 15 Noroeste 26 Oeste 0 -- -- 46
2018-08-28 11:00:00 21.7 17 Noroeste 29 Noroeste 0 -- -- 55
2018-08-28 10:00:00 18.7 11 Oeste 16 Oeste 0 -- -- 61
2018-08-28 09:00:00 18.8 2 Norte 12 Este 0 -- -- 55
2018-08-28 08:00:00 16.5 10 Nordeste 15 Noroeste 0 -- -- 62
2018-08-28 07:00:00 15.5 2 Oeste 12 Norte 0 -- -- 72
2018-08-28 06:00:00 14.7 7 Norte 13 Noroeste 0 -- -- 78
2018-08-28 05:00:00 14.4 7 Norte 11 Norte 0 -- -- 80
2018-08-28 04:00:00 14.8 7 Norte 12 Norte 0 -- -- 78
2018-08-28 03:00:00 15.6 8 Norte 11 Norte 0 -- -- 75
2018-08-28 02:00:00 17.2 6 Nordeste 9 Este 0 -- -- 60
2018-08-28 01:00:00 19.2 6 Norte 8 Norte 0 -- -- 52
2018-08-28 00:00:00 21.6 0 Calma 9 Noroeste 0 -- -- 39
2018-08-27 23:00:00 23.1 9 Sur 12 Sur 0 -- -- 36
2018-08-27 22:00:00 25.1 2 Sur 18 Este 0 -- -- 36
2018-08-27 21:00:00 27.3 7 Sur 14 Sur 0 -- -- 30
2018-08-27 20:00:00 29.2 7 Sur 13 Sur 0 -- -- 27
2018-08-27 19:00:00 30.3 9 Sur 26 Sur 0 -- -- 23
2018-08-27 18:00:00 30.8 15 Sudoeste 24 Sudoeste 0 -- -- 21
2018-08-27 17:00:00 31.1 17 Sudoeste 27 Sur 0 -- -- 24
2018-08-27 16:00:00 30.5 17 Sur 28 Sudoeste 0 -- -- 26
2018-08-27 15:00:00 28.5 12 Sudoeste 21 Sudoeste 0 -- -- 32
2018-08-27 14:00:00 28 5 Sudoeste 17 Sudeste 0 -- -- 40
2018-08-27 13:00:00 26.3 3 Nordeste 13 Nordeste 0 -- -- 42
2018-08-27 12:00:00 23.9 3 Nordeste 12 Nordeste 0 -- -- 47
2018-08-27 11:00:00 21.2 6 Nordeste 13 Norte 0 -- -- 56
2018-08-27 10:00:00 17.1 5 Norte 9 Norte 0 -- -- 78
2018-08-27 09:00:00 13.8 6 Norte 9 Norte 0 -- -- 89
2018-08-27 08:00:00 12.2 4 Norte 8 Norte 0 -- -- 88
2018-08-27 07:00:00 12.8 5 Norte 10 Norte 0 -- -- 88
2018-08-27 06:00:00 13.6 6 Nordeste 9 Norte 0 -- -- 84
2018-08-27 05:00:00 14.4 6 Norte 14 Este 0 -- -- 82
2018-08-27 04:00:00 15.4 6 Nordeste 9 Norte 0 -- -- 77
2018-08-27 03:00:00 16.1 6 Nordeste 13 Nordeste 0 -- -- 74
2018-08-27 02:00:00 16.6 10 Nordeste 17 Nordeste 0 -- -- 76
2018-08-27 01:00:00 17.5 12 Norte 16 Norte 0 -- -- 73
2018-08-27 00:00:00 19.5 7 Norte 13 Norte 0 -- -- 55
2018-08-26 23:00:00 21.8 13 Este 15 Este 0 -- -- 44
2018-08-26 22:00:00 22.8 10 Este 14 Nordeste 0 -- -- 42
2018-08-26 21:00:00 25.3 6 Norte 8 Norte 0 -- -- 42
2018-08-26 20:00:00 27.8 4 Sur 13 Sudoeste 0 -- -- 34
2018-08-26 19:00:00 27.4 3 Sur 10 Noroeste 0 -- -- 35
2018-08-26 18:00:00 27.6 5 Oeste 13 Noroeste 0 -- -- 38
2018-08-26 17:00:00 26.2 9 Noroeste 18 Oeste 0 -- -- 39
2018-08-26 16:00:00 25.6 6 Oeste 19 Sudoeste 0 -- -- 42
2018-08-26 15:00:00 24.1 9 Sudoeste 19 Oeste 0 -- -- 42
2018-08-26 14:00:00 22.6 5 Oeste 19 Oeste 0 -- -- 46
2018-08-26 13:00:00 21.3 4 Oeste 11 Nordeste 0 -- -- 47
2018-08-26 12:00:00 19.6 4 Sur 13 Nordeste 0 -- -- 55
2018-08-26 11:00:00 16.5 9 Nordeste 17 Nordeste 0 -- -- 71
2018-08-26 10:00:00 13.9 10 Norte 16 Nordeste 0 -- -- 81
2018-08-26 09:00:00 11.5 10 Nordeste 12 Nordeste 0 -- -- 88
2018-08-26 08:00:00 9.9 6 Nordeste 9 Este 0 -- -- 90
2018-08-26 07:00:00 10.5 4 Norte 9 Norte 0 -- -- 91
2018-08-26 06:00:00 11.1 6 Norte 8 Norte 0 -- -- 88
2018-08-26 05:00:00 11.5 3 Noroeste 9 Nordeste 0 -- -- 86
2018-08-26 04:00:00 12.3 3 Nordeste 15 Este 0 -- -- 83
2018-08-26 03:00:00 12.8 10 Este 25 Este 0 -- -- 81
2018-08-26 02:00:00 13.5 16 Este 25 Este 0 -- -- 78
2018-08-26 01:00:00 14.4 16 Este 41 Este 0 -- -- 73
2018-08-26 00:00:00 15.4 15 Este 39 Nordeste 0 -- -- 68
2018-08-25 23:00:00 16.9 23 Nordeste 40 Este 0 -- -- 63
2018-08-25 22:00:00 20 27 Este 38 Este 0 -- -- 48
2018-08-25 21:00:00 24 0 Calma 3 Nordeste 0 -- -- 33
2018-08-25 20:00:00 25.3 0 Calma 8 Norte 0 -- -- 31
2018-08-25 19:00:00 25.3 4 Norte 12 Noroeste 0 -- -- 37
2018-08-25 18:00:00 25.3 4 Norte 19 Oeste 0 -- -- 35
2018-08-25 17:00:00 24.6 13 Oeste 19 Oeste 0 -- -- 27
2018-08-25 16:00:00 23.8 10 Oeste 18 Sudoeste 0 -- -- 30
2018-08-25 15:00:00 22.7 9 Norte 16 Noroeste 0 -- -- 43
2018-08-25 14:00:00 21.4 5 Noroeste 14 Noroeste 0 -- -- 48
2018-08-25 13:00:00 20.3 3 Norte 12 Este 0 -- -- 51
2018-08-25 12:00:00 18.5 8 Norte 21 Este 0 -- -- 58
2018-08-25 11:00:00 16.5 6 Nordeste 13 Nordeste 0 -- -- 66
2018-08-25 10:00:00 13.6 2 Nordeste 10 Norte 0 -- -- 80
2018-08-25 09:00:00 10.2 4 Norte 11 Norte 0 -- -- 91
2018-08-25 08:00:00 9 5 Norte 8 Norte 0 -- -- 91
2018-08-25 07:00:00 10 6 Nordeste 9 Norte 0 -- -- 89
2018-08-25 06:00:00 10.9 4 Norte 6 Norte 0 -- -- 86
2018-08-25 05:00:00 11.9 2 Nordeste 8 Norte 0 -- -- 87
2018-08-25 04:00:00 12.6 5 Norte 7 Norte 0 -- -- 84
2018-08-25 03:00:00 13.3 3 Nordeste 6 Nordeste 0 -- -- 82
2018-08-25 02:00:00 14 6 Este 23 Este 0 -- -- 82
2018-08-25 01:00:00 15.3 18 Este 25 Este 0 -- -- 75
2018-08-25 00:00:00 16.5 19 Este 32 Este 0 -- -- 71
2018-08-24 23:00:00 17.8 24 Este 35 Este 0 -- -- 66
2018-08-24 22:00:00 19.9 26 Este 37 Este 0 -- -- 59
2018-08-24 21:00:00 24.9 3 Oeste 6 Noroeste 0 -- -- 33
2018-08-24 20:00:00 25.4 3 Este 9 Norte 0 -- -- 32
2018-08-24 19:00:00 26.8 2 Norte 15 Oeste 0 -- -- 35
2018-08-24 18:00:00 26.9 4 Noroeste 11 Oeste 0 -- -- 31
2018-08-24 17:00:00 26.2 4 Noroeste 14 Noroeste 0 -- -- 29
2018-08-24 16:00:00 25.6 6 Oeste 14 Norte 0 -- -- 34
2018-08-24 15:00:00 23.9 7 Norte 14 Norte 0 -- -- 40
2018-08-24 14:00:00 23.4 6 Noroeste 12 Noroeste 0 -- -- 47
2018-08-24 13:00:00 21.8 5 Noroeste 15 Norte 0 -- -- 50
2018-08-24 12:00:00 20.3 7 Norte 17 Norte 0 -- -- 55
2018-08-24 11:00:00 18.4 7 Norte 14 Norte 0 -- -- 65
2018-08-24 10:00:00 14.2 5 Norte 9 Norte 0 -- -- 82
2018-08-24 09:00:00 11 7 Norte 10 Norte 0 -- -- 89
2018-08-24 08:00:00 10 4 Norte 8 Norte 0 -- -- 90
2018-08-24 07:00:00 10.3 6 Norte 13 Norte 0 -- -- 89
2018-08-24 06:00:00 11.3 7 Norte 14 Norte 0 -- -- 87
2018-08-24 05:00:00 12.7 4 Norte 15 Nordeste 0 -- -- 86
2018-08-24 04:00:00 14.8 5 Norte 18 Este 0 -- -- 82
2018-08-24 03:00:00 15.1 10 Este 19 Este 0 -- -- 81
2018-08-24 02:00:00 15.8 15 Este 23 Este 0 -- -- 77
2018-08-24 01:00:00 17.5 16 Este 24 Este 0 -- -- 71
2018-08-24 00:00:00 19.4 12 Este 20 Este 0 -- -- 64
2018-08-23 23:00:00 20.1 6 Nordeste 20 Nordeste 0 -- -- 40
2018-08-23 22:00:00 23.1 16 Nordeste 28 Nordeste 0 -- -- 29
2018-08-23 21:00:00 24.8 19 Norte 26 Norte 0 -- -- 35
2018-08-23 20:00:00 26.8 18 Norte 25 Norte 0 -- -- 34
2018-08-23 19:00:00 30.3 13 Oeste 19 Oeste 0 -- -- 27
2018-08-23 18:00:00 29.9 3 Este 14 Oeste 0 -- -- 33
2018-08-23 17:00:00 29.8 5 Norte 17 Oeste 0 -- -- 25
2018-08-23 16:00:00 29 9 Oeste 18 Oeste 0 -- -- 32
2018-08-23 15:00:00 28.2 6 Oeste 14 Oeste 0 -- -- 36
2018-08-23 14:00:00 27.2 7 Oeste 16 Noroeste 0 -- -- 43
2018-08-23 13:00:00 26.2 3 Sur 10 Nordeste 0 -- -- 47
2018-08-23 12:00:00 24.2 4 Sudeste 11 Este 0 -- -- 56
2018-08-23 11:00:00 21 5 Nordeste 13 Nordeste 0 -- -- 64
2018-08-23 10:00:00 16.8 6 Norte 10 Norte 0 -- -- 76
2018-08-23 09:00:00 14.6 6 Nordeste 10 Norte 0 -- -- 85
2018-08-23 08:00:00 13.3 6 Norte 12 Nordeste 0 -- -- 85
2018-08-23 07:00:00 13.2 9 Nordeste 12 Nordeste 0 -- -- 86
2018-08-23 06:00:00 13.5 10 Nordeste 11 Nordeste 0 -- -- 87
2018-08-23 05:00:00 14.2 7 Norte 12 Nordeste 0 -- -- 84
2018-08-23 04:00:00 14.6 9 Norte 13 Nordeste 0 -- -- 86
2018-08-23 03:00:00 15.5 10 Norte 15 Nordeste 0 -- -- 83
2018-08-23 02:00:00 16.9 9 Norte 19 Nordeste 0 -- -- 73
2018-08-23 01:00:00 18 9 Nordeste 16 Nordeste 0 -- -- 65
2018-08-23 00:00:00 20.7 5 Sudeste 20 Este 0 -- -- 52